Time;durP1;ratioP1;P1;durP2;ratioP2;P2;SDS_P1;SDS_P2;PMS_P1;PMS_P2;Temp;Humidity;BMP_temperature;BMP_pressure;BME280_temperature;BME280_humidity;BME280_pressure;Samples;Min_cycle;Max_cycle;Signal;HPM_P1;HPM_P2
2021/10/21 00:02:19;;;;;;;;;;;;;;;5.42;91.99;100652.09;5013061;28;816;-62
2021/10/21 00:04:46;;;;;;;;;;;;;;;5.38;92.03;100653.16;4995440;28;1415;-62
2021/10/21 00:07:12;;;;;;;;;;;;;;;5.39;92.32;100654.72;5012973;28;886;-62
2021/10/21 00:09:38;;;;;;;;;;;;;;;5.35;92.35;100653.81;5013094;28;795;-62
2021/10/21 00:12:05;;;;;;;;;;;;;;;5.34;92.20;100650.28;5012890;28;862;-62
2021/10/21 00:14:32;;;;;;;;;;;;;;;5.23;91.95;100646.44;5012841;28;894;-62
2021/10/21 00:16:59;;;;;;;;;;;;;;;5.22;92.25;100637.41;5012986;28;1886;-62
2021/10/21 00:19:26;;;;;;;;;;;;;;;5.05;91.08;100630.22;4995048;28;1339;-61
2021/10/21 00:21:53;;;;;;;;;;;;;;;4.95;92.04;100629.91;5012769;28;855;-62
2021/10/21 00:24:20;;;;;;;;;;;;;;;4.88;91.62;100633.22;5012876;28;834;-62
2021/10/21 00:26:46;;;;;;;;;;;;;;;4.79;91.68;100632.53;5012704;28;811;-62
2021/10/21 00:29:12;;;;;;;;;;;;;;;4.70;91.54;100630.72;5012658;28;807;-62
2021/10/21 00:31:39;;;;;;;;;;;;;;;4.49;92.21;100595.22;5012656;28;918;-62
2021/10/21 00:34:09;;;;;;;;;;;;;;;4.65;91.85;100628.22;5012749;28;870;-62
2021/10/21 00:36:35;;;;;;;;;;;;;;;4.59;91.44;100624.09;5011888;28;1972;-62
2021/10/21 00:39:02;;;;;;;;;;;;;;;4.53;91.71;100620.00;5012667;28;807;-62
2021/10/21 00:41:29;;;;;;;;;;;;;;;4.59;92.06;100629.59;5012448;28;874;-62
2021/10/21 00:44:05;;;;;;;;;;;;;;;4.65;91.99;100613.72;5012385;28;890;-62
2021/10/21 00:46:32;;;;;;;;;;;;;;;4.70;91.75;100616.22;5012360;28;874;-62
2021/10/21 00:48:59;;;;;;;;;;;;;;;4.77;92.55;100616.44;4994607;28;1248;-62
2021/10/21 00:51:26;;;;;;;;;;;;;;;4.84;92.72;100615.88;5012259;28;819;-62
2021/10/21 00:53:53;;;;;;;;;;;;;;;4.93;93.17;100621.22;5012164;28;791;-62
2021/10/21 00:56:20;;;;;;;;;;;;;;;5.00;93.15;100607.75;4994585;28;1312;-62
2021/10/21 00:58:50;;;;;;;;;;;;;;;5.07;93.01;100605.22;5012002;28;1944;-62
2021/10/21 01:01:17;;;;;;;;;;;;;;;5.07;92.95;100607.97;5012110;28;787;-62
2021/10/21 01:03:43;;;;;;;;;;;;;;;5.13;93.46;100603.84;5012106;28;875;-62
2021/10/21 01:06:10;;;;;;;;;;;;;;;5.14;93.57;100608.19;4994464;28;1375;-62
2021/10/21 01:08:38;;;;;;;;;;;;;;;5.15;93.78;100607.03;5011944;28;882;-62
2021/10/21 01:11:05;;;;;;;;;;;;;;;5.18;93.50;100605.56;5012255;28;871;-62
2021/10/21 01:13:31;;;;;;;;;;;;;;;5.13;92.72;100603.06;5011907;28;807;-62
2021/10/21 01:16:04;;;;;;;;;;;;;;;4.99;92.53;100601.47;5011884;28;917;-62
2021/10/21 01:18:30;;;;;;;;;;;;;;;4.93;92.93;100599.31;5011869;28;1910;-62
2021/10/21 01:20:58;;;;;;;;;;;;;;;4.91;92.83;100591.47;5011795;28;819;-62
2021/10/21 01:23:25;;;;;;;;;;;;;;;4.80;92.37;100590.31;5012454;28;978;-62
2021/10/21 01:25:52;;;;;;;;;;;;;;;4.72;92.27;100585.78;5011840;28;795;-62
2021/10/21 01:28:18;;;;;;;;;;;;;;;4.66;92.44;100588.72;5012288;28;799;-62
2021/10/21 01:30:45;;;;;;;;;;;;;;;4.59;92.72;100591.25;5011658;28;856;-62
2021/10/21 01:33:12;;;;;;;;;;;;;;;4.50;92.17;100585.06;4994014;28;1197;-62
2021/10/21 01:35:39;;;;;;;;;;;;;;;4.29;91.71;100583.25;5011677;28;862;-62
2021/10/21 01:38:06;;;;;;;;;;;;;;;4.12;91.70;100586.19;5011644;28;1979;-62
2021/10/21 01:40:32;;;;;;;;;;;;;;;4.00;91.74;100580.69;5011546;28;819;-62
2021/10/21 01:42:59;;;;;;;;;;;;;;;3.93;91.61;100572.25;4993933;28;1425;-62
2021/10/21 01:45:29;;;;;;;;;;;;;;;3.88;92.16;100576.81;5011638;28;780;-62
2021/10/21 01:47:56;;;;;;;;;;;;;;;3.89;92.46;100572.91;5013569;28;894;-62
2021/10/21 01:50:23;;;;;;;;;;;;;;;3.89;92.30;100572.91;5015936;28;869;-62
2021/10/21 01:52:50;;;;;;;;;;;;;;;3.96;92.58;100574.31;5015831;28;877;-62
2021/10/21 01:55:18;;;;;;;;;;;;;;;3.95;92.09;100570.78;4998171;28;1290;-62
2021/10/21 01:57:44;;;;;;;;;;;;;;;3.89;92.38;100564.72;4997771;28;1941;-62
2021/10/21 02:00:14;;;;;;;;;;;;;;;3.89;92.32;100561.97;5015682;28;799;-62
2021/10/21 02:02:44;;;;;;;;;;;;;;;3.92;92.43;100551.50;5015641;28;831;-62
2021/10/21 02:05:12;;;;;;;;;;;;;;;3.97;92.63;100559.47;5015582;28;795;-62
2021/10/21 02:07:39;;;;;;;;;;;;;;;3.95;92.46;100553.53;4997665;28;1225;-62
2021/10/21 02:10:07;;;;;;;;;;;;;;;3.89;91.88;100558.47;5015204;28;831;-62
2021/10/21 02:12:33;;;;;;;;;;;;;;;3.83;92.16;100555.13;4997582;28;1229;-62
2021/10/21 02:15:00;;;;;;;;;;;;;;;3.81;92.14;100551.13;4997482;28;1280;-62
2021/10/21 02:17:27;;;;;;;;;;;;;;;3.84;92.84;100545.81;5015432;28;1885;-62
2021/10/21 02:19:53;;;;;;;;;;;;;;;4.07;93.25;100550.84;5014849;28;1210;-62
2021/10/21 02:22:20;;;;;;;;;;;;;;;4.16;93.46;100551.56;5015015;28;863;-62
2021/10/21 02:24:47;;;;;;;;;;;;;;;4.27;93.35;100555.44;5015012;28;835;-62
2021/10/21 02:27:13;;;;;;;;;;;;;;;4.36;93.04;100543.56;5014749;28;871;-62
2021/10/21 02:29:40;;;;;;;;;;;;;;;4.39;93.48;100553.81;5014886;28;858;-62
2021/10/21 02:32:07;;;;;;;;;;;;;;;4.36;93.33;100549.06;5014864;28;799;-62
2021/10/21 02:34:33;;;;;;;;;;;;;;;4.32;92.96;100546.19;5014696;28;807;-62
2021/10/21 02:37:00;;;;;;;;;;;;;;;4.36;93.27;100549.06;5014739;28;1961;-62
2021/10/21 02:39:27;;;;;;;;;;;;;;;4.32;92.69;100542.66;4997110;28;1320;-62
2021/10/21 02:41:53;;;;;;;;;;;;;;;4.26;92.84;100542.09;5014635;28;815;-62
2021/10/21 02:44:19;;;;;;;;;;;;;;;4.16;91.88;100540.59;5014613;28;791;-62
2021/10/21 02:46:46;;;;;;;;;;;;;;;4.08;92.44;100538.78;5014607;28;815;-62
2021/10/21 02:49:13;;;;;;;;;;;;;;;4.11;92.98;100540.81;5014498;28;874;-62
2021/10/21 02:51:40;;;;;;;;;;;;;;;4.21;93.45;100532.16;5014511;28;885;-62
2021/10/21 02:54:08;;;;;;;;;;;;;;;4.23;93.00;100537.31;5014405;28;878;-62
2021/10/21 02:56:34;;;;;;;;;;;;;;;4.30;93.43;100545.72;4996680;28;914;-62
2021/10/21 02:59:01;;;;;;;;;;;;;;;4.33;92.99;100538.78;5013850;28;803;-62
2021/10/21 03:01:28;;;;;;;;;;;;;;;4.27;92.65;100540.97;5014264;28;799;-62
2021/10/21 03:03:55;;;;;;;;;;;;;;;4.27;92.76;100535.47;4996624;28;1172;-62
2021/10/21 03:06:22;;;;;;;;;;;;;;;4.23;92.73;100540.84;5014193;28;910;-62
2021/10/21 03:08:49;;;;;;;;;;;;;;;4.29;93.28;100533.19;5014114;28;833;-62
2021/10/21 03:11:16;;;;;;;;;;;;;;;4.24;92.39;100534.19;5014149;28;890;-62
2021/10/21 03:13:42;;;;;;;;;;;;;;;4.21;92.83;100526.69;5014013;28;867;-62
2021/10/21 03:16:09;;;;;;;;;;;;;;;4.13;92.55;100538.53;5014083;28;927;-62
2021/10/21 03:18:35;;;;;;;;;;;;;;;4.09;92.82;100532.16;5013783;28;1955;-62
2021/10/21 03:21:02;;;;;;;;;;;;;;;4.03;92.84;100519.81;5014137;28;838;-62
2021/10/21 03:23:27;;;;;;;;;;;;;;;4.00;93.10;100517.78;5014298;28;791;-62
2021/10/21 03:25:54;;;;;;;;;;;;;;;4.06;93.46;100519.16;5013725;28;870;-62
2021/10/21 03:28:23;;;;;;;;;;;;;;;4.11;93.47;100523.59;5013951;28;784;-62
2021/10/21 03:30:49;;;;;;;;;;;;;;;4.22;93.76;100506.38;5013956;28;1302;-62
2021/10/21 03:33:16;;;;;;;;;;;;;;;4.30;93.61;100512.88;5014355;28;760;-62
2021/10/21 03:35:42;;;;;;;;;;;;;;;4.33;93.41;100514.94;5014217;28;764;-62
2021/10/21 03:38:09;;;;;;;;;;;;;;;4.37;93.46;100507.63;5013495;28;1910;-62
2021/10/21 03:40:36;;;;;;;;;;;;;;;4.36;93.39;100497.03;5013480;28;831;-62
2021/10/21 03:43:03;;;;;;;;;;;;;;;4.42;93.35;100498.41;4995929;28;878;-62
2021/10/21 03:45:29;;;;;;;;;;;;;;;4.44;93.13;100501.59;5013576;28;807;-62
2021/10/21 03:47:56;;;;;;;;;;;;;;;4.45;93.40;100500.44;4995851;28;1328;-62
2021/10/21 03:50:22;;;;;;;;;;;;;;;4.48;93.76;100495.09;5013308;28;906;-62
2021/10/21 03:52:49;;;;;;;;;;;;;;;4.45;93.02;100497.72;5013403;28;847;-62
2021/10/21 03:55:15;;;;;;;;;;;;;;;4.29;92.67;100492.94;5013090;28;827;-62
2021/10/21 03:57:42;;;;;;;;;;;;;;;4.31;93.21;100492.59;5013342;28;1886;-62
2021/10/21 04:00:09;;;;;;;;;;;;;;;4.35;93.09;100487.22;5013141;28;806;-62
2021/10/21 04:02:39;;;;;;;;;;;;;;;4.37;93.04;100490.41;5013406;28;846;-62
2021/10/21 04:05:05;;;;;;;;;;;;;;;4.40;93.25;100481.53;4995506;28;1221;-62
2021/10/21 04:07:33;;;;;;;;;;;;;;;4.57;93.94;100480.50;4995385;28;1268;-62
2021/10/21 04:10:00;;;;;;;;;;;;;;;4.66;93.82;100473.72;5012180;28;807;-62
2021/10/21 04:12:27;;;;;;;;;;;;;;;4.64;93.15;100484.22;5012873;28;823;-62
2021/10/21 04:14:54;;;;;;;;;;;;;;;4.74;93.75;100482.13;5012941;28;887;-62
2021/10/21 04:17:21;;;;;;;;;;;;;;;4.73;92.95;100469.59;5013001;28;1882;-62
2021/10/21 04:19:47;;;;;;;;;;;;;;;4.65;92.86;100471.31;5012625;28;1182;-62
2021/10/21 04:22:15;;;;;;;;;;;;;;;4.57;92.92;100466.78;5012762;28;855;-62
2021/10/21 04:24:42;;;;;;;;;;;;;;;4.45;92.22;100471.13;5012692;28;815;-62
2021/10/21 04:27:09;;;;;;;;;;;;;;;4.46;92.91;100466.47;4994934;28;1189;-62
2021/10/21 04:29:35;;;;;;;;;;;;;;;4.48;93.50;100472.38;5012672;28;811;-62
2021/10/21 04:32:02;;;;;;;;;;;;;;;4.37;92.92;100458.38;5012529;28;847;-62
2021/10/21 04:34:29;;;;;;;;;;;;;;;4.41;93.42;100463.97;5012684;28;881;-62
2021/10/21 04:36:56;;;;;;;;;;;;;;;4.53;93.58;100463.16;5012427;28;1926;-62
2021/10/21 04:39:22;;;;;;;;;;;;;;;4.63;93.59;100463.47;5012412;28;843;-62
2021/10/21 04:41:49;;;;;;;;;;;;;;;4.74;93.74;100462.97;5012467;28;827;-62
2021/10/21 04:44:16;;;;;;;;;;;;;;;4.84;94.10;100467.97;5012347;28;819;-62
2021/10/21 04:46:41;;;;;;;;;;;;;;;4.93;93.85;100473.28;5012286;28;914;-62
2021/10/21 04:49:08;;;;;;;;;;;;;;;4.94;93.93;100464.72;5012277;28;807;-62
2021/10/21 04:51:34;;;;;;;;;;;;;;;4.97;93.62;100461.31;5012464;28;877;-62
2021/10/21 04:54:01;;;;;;;;;;;;;;;5.03;94.51;100472.81;4994517;28;1205;-62
2021/10/21 04:56:27;;;;;;;;;;;;;;;5.13;94.20;100468.78;5012489;28;803;-62
2021/10/21 04:58:54;;;;;;;;;;;;;;;5.23;94.10;100468.28;4994425;28;1953;-62
2021/10/21 05:01:21;;;;;;;;;;;;;;;5.34;94.71;100476.78;5012149;28;847;-62
2021/10/21 05:03:48;;;;;;;;;;;;;;;5.43;94.10;100464.50;5012032;28;869;-62
2021/10/21 05:06:14;;;;;;;;;;;;;;;5.52;94.18;100469.81;4994449;28;1150;-62
2021/10/21 05:08:41;;;;;;;;;;;;;;;5.59;94.20;100470.03;5012051;28;803;-62
2021/10/21 05:19:01;;;;;;;;;;;;;;;5.92;94.71;100466.94;5041981;23;1970;-61
2021/10/21 05:21:28;;;;;;;;;;;;;;;6.02;94.70;100457.41;5012012;28;890;-60
2021/10/21 05:23:55;;;;;;;;;;;;;;;6.20;95.48;100455.06;5011858;28;873;-60
2021/10/21 05:26:21;;;;;;;;;;;;;;;6.47;96.32;100453.34;5012003;28;953;-60
2021/10/21 05:28:48;;;;;;;;;;;;;;;6.59;96.85;100452.38;5011719;28;917;-60
2021/10/21 05:31:14;;;;;;;;;;;;;;;6.67;95.71;100454.13;5011853;28;943;-61
2021/10/21 05:33:41;;;;;;;;;;;;;;;6.75;96.61;100453.13;5011629;28;866;-58
2021/10/21 05:36:08;;;;;;;;;;;;;;;7.13;98.96;100453.50;5011774;28;815;-58
2021/10/21 05:38:34;;;;;;;;;;;;;;;7.47;99.99;100451.78;5011572;28;1918;-58
2021/10/21 05:41:01;;;;;;;;;;;;;;;7.96;100.00;100459.31;5011679;28;877;-58
2021/10/21 05:43:27;;;;;;;;;;;;;;;8.06;100.00;100459.84;5011721;28;803;-58
2021/10/21 05:45:53;;;;;;;;;;;;;;;7.80;98.44;100455.09;5011643;28;1035;-58
2021/10/21 05:48:20;;;;;;;;;;;;;;;7.62;97.39;100452.84;4993937;28;1177;-58
2021/10/21 05:50:47;;;;;;;;;;;;;;;7.52;95.84;100456.19;5011776;28;1159;-58
2021/10/21 05:53:14;;;;;;;;;;;;;;;7.55;96.53;100459.00;5011597;28;802;-58
2021/10/21 05:55:41;;;;;;;;;;;;;;;7.90;96.36;100460.00;5011774;28;1045;-58
2021/10/21 05:58:12;;;;;;;;;;;;;;;8.15;95.35;100460.38;5011554;28;1890;-58
2021/10/21 06:00:38;;;;;;;;;;;;;;;8.29;94.58;100463.34;5011426;28;914;-58
2021/10/21 06:03:04;;;;;;;;;;;;;;;8.51;94.33;100467.25;5011470;28;878;-58
2021/10/21 06:05:31;;;;;;;;;;;;;;;8.75;94.26;100463.22;5011474;28;834;-58
2021/10/21 06:08:00;;;;;;;;;;;;;;;8.93;93.49;100460.69;5011724;28;823;-58
2021/10/21 06:10:27;;;;;;;;;;;;;;;9.11;92.88;100460.09;5011353;28;937;-58
2021/10/21 06:12:55;;;;;;;;;;;;;;;9.11;92.72;100458.16;5011573;28;878;-58
2021/10/21 06:15:22;;;;;;;;;;;;;;;8.79;90.58;100457.78;5011449;28;815;-58
2021/10/21 06:17:49;;;;;;;;;;;;;;;8.67;91.66;100456.03;5011117;28;1889;-58
2021/10/21 06:20:16;;;;;;;;;;;;;;;8.73;91.83;100460.06;5011555;28;935;-58
2021/10/21 06:22:43;;;;;;;;;;;;;;;8.76;91.82;100461.25;5011497;28;815;-58
2021/10/21 06:25:10;;;;;;;;;;;;;;;9.18;93.58;100458.22;5011250;28;814;-58
2021/10/21 06:27:38;;;;;;;;;;;;;;;9.98;92.33;100452.28;5011173;28;935;-59
2021/10/21 06:30:05;;;;;;;;;;;;;;;10.76;90.16;100451.22;5011138;28;923;-58
2021/10/21 06:32:32;;;;;;;;;;;;;;;11.33;87.89;100450.63;5011219;28;846;-59
2021/10/21 06:34:57;;;;;;;;;;;;;;;11.59;87.53;100443.16;5014306;28;1000;-59
2021/10/21 06:37:25;;;;;;;;;;;;;;;11.55;86.56;100443.16;5014661;28;1913;-58
2021/10/21 06:39:54;;;;;;;;;;;;;;;11.55;87.11;100454.22;5014666;28;890;-59
2021/10/21 06:42:23;;;;;;;;;;;;;;;11.72;85.50;100447.13;5014622;28;887;-58
2021/10/21 06:44:50;;;;;;;;;;;;;;;11.76;85.69;100442.38;5014504;28;864;-58
2021/10/21 06:47:17;;;;;;;;;;;;;;;11.92;85.52;100447.56;5014813;28;884;-59
2021/10/21 06:49:44;;;;;;;;;;;;;;;11.93;83.55;100440.06;5014316;28;803;-58
2021/10/21 06:52:11;;;;;;;;;;;;;;;12.35;83.52;100435.63;5014491;28;843;-58
2021/10/21 06:54:37;;;;;;;;;;;;;;;13.17;83.94;100438.13;5014397;28;952;-59
2021/10/21 06:57:04;;;;;;;;;;;;;;;13.93;81.51;100432.06;5014339;28;1890;-58
2021/10/21 06:59:30;;;;;;;;;;;;;;;14.24;79.58;100435.75;5014326;28;808;-58
2021/10/21 07:01:57;;;;;;;;;;;;;;;14.65;78.66;100437.72;5014279;28;811;-59
2021/10/21 07:04:25;;;;;;;;;;;;;;;14.83;78.44;100432.75;5014125;28;895;-58
2021/10/21 07:06:51;;;;;;;;;;;;;;;15.01;76.17;100432.50;5014134;28;934;-58
2021/10/21 07:09:18;;;;;;;;;;;;;;;14.71;73.72;100436.06;5014111;28;1038;-58
2021/10/21 07:11:44;;;;;;;;;;;;;;;14.52;74.81;100428.31;5013978;28;1045;-58
2021/10/21 07:14:11;;;;;;;;;;;;;;;14.63;74.41;100429.00;5014177;28;810;-58
2021/10/21 07:16:37;;;;;;;;;;;;;;;14.58;72.76;100421.91;5013955;28;876;-59
2021/10/21 07:19:03;;;;;;;;;;;;;;;14.73;72.48;100424.53;5013800;28;1882;-58
2021/10/21 07:21:30;;;;;;;;;;;;;;;14.62;70.34;100422.66;5014015;28;870;-59
2021/10/21 07:23:56;;;;;;;;;;;;;;;14.52;69.76;100419.97;5013801;28;905;-58
2021/10/21 07:26:22;;;;;;;;;;;;;;;14.38;68.57;100413.38;5013878;28;1066;-58
2021/10/21 07:28:49;;;;;;;;;;;;;;;14.71;67.61;100405.47;5014137;28;1033;-58
2021/10/21 07:31:18;;;;;;;;;;;;;;;14.87;66.44;100404.84;5013799;28;842;-58
2021/10/21 07:33:45;;;;;;;;;;;;;;;14.80;65.62;100405.72;5013620;28;842;-58
2021/10/21 07:36:12;;;;;;;;;;;;;;;14.90;64.88;100396.47;5013514;28;926;-58
2021/10/21 07:38:39;;;;;;;;;;;;;;;14.92;65.05;100389.72;5013454;28;1911;-59
2021/10/21 07:41:06;;;;;;;;;;;;;;;15.01;64.69;100390.75;5013443;28;934;-58
2021/10/21 07:43:37;;;;;;;;;;;;;;;14.92;63.29;100386.94;5013521;28;868;-58
2021/10/21 07:46:05;;;;;;;;;;;;;;;14.70;64.27;100385.22;5012174;28;832;-58
2021/10/21 07:48:31;;;;;;;;;;;;;;;14.73;64.37;100383.56;5013452;28;843;-59
2021/10/21 07:50:58;;;;;;;;;;;;;;;14.75;63.68;100386.72;5013344;28;923;-58
2021/10/21 07:53:26;;;;;;;;;;;;;;;14.73;63.55;100382.78;4995904;28;866;-58
2021/10/21 07:55:53;;;;;;;;;;;;;;;14.83;63.42;100374.31;5013613;28;854;-58
2021/10/21 07:58:18;;;;;;;;;;;;;;;14.93;63.66;100367.00;4995837;28;1945;-59
2021/10/21 08:00:45;;;;;;;;;;;;;;;15.15;63.21;100370.28;5013262;28;890;-59
2021/10/21 08:03:11;;;;;;;;;;;;;;;15.30;61.52;100365.28;5013236;28;803;-58
2021/10/21 08:05:38;;;;;;;;;;;;;;;15.20;62.56;100364.25;5013319;28;905;-59
2021/10/21 08:08:05;;;;;;;;;;;;;;;15.27;61.74;100364.13;5012981;28;939;-58
2021/10/21 08:10:31;;;;;;;;;;;;;;;15.44;62.08;100353.13;5013036;28;838;-58
2021/10/21 08:12:59;;;;;;;;;;;;;;;15.24;61.70;100361.41;5012956;28;898;-58
2021/10/21 08:15:26;;;;;;;;;;;;;;;15.04;62.30;100361.28;5012891;28;913;-58
2021/10/21 08:17:54;;;;;;;;;;;;;;;15.09;62.81;100358.81;5012851;28;1882;-58
2021/10/21 08:20:24;;;;;;;;;;;;;;;15.15;62.53;100363.91;5012882;28;843;-59
2021/10/21 08:22:50;;;;;;;;;;;;;;;15.35;61.73;100361.25;5013094;28;815;-58
2021/10/21 08:25:18;;;;;;;;;;;;;;;15.44;61.71;100351.13;5012739;28;906;-58
2021/10/21 08:27:44;;;;;;;;;;;;;;;15.32;61.66;100344.16;5012961;28;779;-58
2021/10/21 08:30:18;;;;;;;;;;;;;;;15.49;61.98;100342.31;5012636;28;882;-58
2021/10/21 08:32:45;;;;;;;;;;;;;;;15.56;60.83;100338.59;4995055;28;849;-58
2021/10/21 08:35:14;;;;;;;;;;;;;;;15.42;61.81;100342.41;5012575;28;900;-58
2021/10/21 08:37:41;;;;;;;;;;;;;;;15.66;60.92;100339.63;5012369;28;1986;-58
2021/10/21 08:40:07;;;;;;;;;;;;;;;15.63;60.14;100335.69;4994991;28;846;-58
2021/10/21 08:42:33;;;;;;;;;;;;;;;15.57;59.79;100331.81;5012498;28;862;-58
2021/10/21 08:45:00;;;;;;;;;;;;;;;15.82;61.38;100328.63;5012271;28;847;-59
2021/10/21 08:47:27;;;;;;;;;;;;;;;15.95;58.77;100317.63;5012416;28;857;-58
2021/10/21 08:49:55;;;;;;;;;;;;;;;15.82;58.99;100325.84;5012237;28;847;-58
2021/10/21 08:52:22;;;;;;;;;;;;;;;15.81;59.14;100312.31;5012355;28;866;-58
2021/10/21 08:54:48;;;;;;;;;;;;;;;15.86;58.00;100317.41;5012248;28;854;-58
2021/10/21 08:57:15;;;;;;;;;;;;;;;15.78;57.94;100316.75;5011759;28;1904;-58
2021/10/21 08:59:45;;;;;;;;;;;;;;;15.68;58.79;100312.13;5012067;28;878;-58
2021/10/21 09:02:22;;;;;;;;;;;;;;;15.67;58.43;100307.78;4995081;28;915;-58
2021/10/21 09:10:05;;;;;;;;;;;;;;;16.14;57.54;100302.16;5012084;28;680;-59
2021/10/21 09:12:41;;;;;;;;;;;;;;;16.30;56.60;100293.84;5012031;28;811;-58
2021/10/21 09:15:13;;;;;;;;;;;;;;;16.46;56.50;100295.13;5011977;28;823;-58
2021/10/21 09:17:40;;;;;;;;;;;;;;;16.56;55.37;100290.50;5011973;28;1882;-58
2021/10/21 09:20:21;;;;;;;;;;;;;;;16.43;55.58;100282.84;5011701;28;947;-58
2021/10/21 09:22:53;;;;;;;;;;;;;;;16.35;55.51;100284.19;5011750;28;920;-58
2021/10/21 09:25:23;;;;;;;;;;;;;;;16.30;54.99;100265.97;5011981;28;815;-59
2021/10/21 09:27:50;;;;;;;;;;;;;;;16.41;55.09;100279.69;5011877;28;878;-59
2021/10/21 09:30:23;;;;;;;;;;;;;;;16.52;55.47;100265.50;4994523;28;801;-58
2021/10/21 09:32:50;;;;;;;;;;;;;;;16.75;54.80;100267.38;5011729;28;1381;-58
2021/10/21 09:35:19;;;;;;;;;;;;;;;16.79;54.45;100256.94;5012063;28;787;-58
2021/10/21 09:37:47;;;;;;;;;;;;;;;16.79;54.71;100250.53;5011961;28;1910;-58
2021/10/21 09:40:15;;;;;;;;;;;;;;;16.97;54.17;100245.34;4994501;28;879;-58
2021/10/21 09:42:42;;;;;;;;;;;;;;;17.09;53.70;100238.28;4993987;28;911;-58
2021/10/21 09:45:13;;;;;;;;;;;;;;;17.13;53.96;100231.41;5011773;28;815;-58
2021/10/21 09:47:42;;;;;;;;;;;;;;;16.98;54.54;100234.97;5011555;28;926;-58
2021/10/21 09:50:27;;;;;;;;;;;;;;;17.07;54.44;100229.53;5011527;28;952;-58
2021/10/21 09:53:03;;;;;;;;;;;;;;;16.89;54.91;100218.81;5011484;28;1041;-58
2021/10/21 09:55:30;;;;;;;;;;;;;;;17.00;54.29;100219.34;5011587;28;877;-58
2021/10/21 09:58:00;;;;;;;;;;;;;;;17.18;54.75;100215.34;5011515;28;1941;-58
2021/10/21 10:00:30;;;;;;;;;;;;;;;17.52;53.71;100210.03;5011512;28;869;-58
2021/10/21 10:03:08;;;;;;;;;;;;;;;17.66;53.23;100211.63;5011901;28;799;-58
2021/10/21 10:05:35;;;;;;;;;;;;;;;17.87;52.50;100193.53;5011733;28;875;-58
2021/10/21 10:08:03;;;;;;;;;;;;;;;17.90;51.68;100192.66;5011865;28;854;-58
2021/10/21 10:10:30;;;;;;;;;;;;;;;17.74;52.73;100187.84;5015040;28;942;-58
2021/10/21 10:12:56;;;;;;;;;;;;;;;17.96;52.63;100187.28;5015299;28;811;-58
2021/10/21 10:15:24;;;;;;;;;;;;;;;17.98;52.00;100181.25;5015229;28;827;-58
2021/10/21 10:17:51;;;;;;;;;;;;;;;17.71;53.04;100171.22;5015227;28;1953;-58
2021/10/21 10:20:23;;;;;;;;;;;;;;;17.85;52.38;100161.63;5015036;28;930;-58
2021/10/21 10:22:51;;;;;;;;;;;;;;;18.19;52.10;100168.63;5015111;28;886;-59
2021/10/21 10:25:18;;;;;;;;;;;;;;;18.50;51.30;100158.47;5015094;28;830;-58
2021/10/21 10:28:04;;;;;;;;;;;;;;;18.52;51.23;100156.00;5014839;28;803;-58
2021/10/21 10:30:47;;;;;;;;;;;;;;;18.55;50.94;100143.13;5014873;28;954;-58
2021/10/21 10:33:38;;;;;;;;;;;;;;;18.33;51.21;100143.81;5014740;28;855;-58
2021/10/21 10:36:24;;;;;;;;;;;;;;;18.54;50.98;100130.34;5014752;28;924;-58
2021/10/21 10:38:51;;;;;;;;;;;;;;;18.98;50.22;100122.88;5014562;28;1973;-59
2021/10/21 10:41:36;;;;;;;;;;;;;;;19.04;49.51;100119.53;5014994;28;862;-58
2021/10/21 10:44:03;;;;;;;;;;;;;;;18.85;49.39;100108.16;5014510;28;847;-59
2021/10/21 10:46:49;;;;;;;;;;;;;;;19.00;48.48;100102.84;5014563;28;818;-58
2021/10/21 10:49:34;;;;;;;;;;;;;;;18.95;48.49;100100.63;5014569;28;823;-58
2021/10/21 10:52:00;;;;;;;;;;;;;;;19.08;48.33;100092.19;5014626;28;791;-58
2021/10/21 10:54:46;;;;;;;;;;;;;;;19.13;48.87;100081.16;5014462;28;878;-58
2021/10/21 10:57:32;;;;;;;;;;;;;;;19.19;48.27;100086.97;5014568;28;1882;-58
2021/10/21 10:59:59;;;;;;;;;;;;;;;19.40;48.56;100081.84;5013840;28;1554;-58
2021/10/21 11:02:25;;;;;;;;;;;;;;;19.57;47.73;100078.34;5014337;28;878;-58
2021/10/21 11:04:52;;;;;;;;;;;;;;;19.48;47.76;100061.50;5014207;28;862;-58
2021/10/21 11:07:28;;;;;;;;;;;;;;;19.56;47.86;100064.78;5014175;28;903;-58
2021/10/21 11:10:23;;;;;;;;;;;;;;;19.79;46.55;100066.34;5013666;28;803;-58
2021/10/21 11:12:54;;;;;;;;;;;;;;;19.81;47.16;100058.25;5013467;28;1903;-58
2021/10/21 11:15:29;;;;;;;;;;;;;;;19.75;45.80;100055.25;5013784;28;811;-58
2021/10/21 11:17:57;;;;;;;;;;;;;;;20.03;46.76;100040.59;5013606;28;1954;-58
2021/10/21 11:20:29;;;;;;;;;;;;;;;20.21;46.35;100037.06;5012771;28;855;-58
2021/10/21 11:23:06;;;;;;;;;;;;;;;20.50;46.13;100031.81;5013106;28;1162;-58
2021/10/21 11:25:33;;;;;;;;;;;;;;;20.71;44.38;100021.72;5012800;28;981;-58
2021/10/21 11:28:00;;;;;;;;;;;;;;;20.63;45.01;100028.13;5013005;28;1207;-58
2021/10/21 11:30:31;;;;;;;;;;;;;;;20.53;45.04;100021.69;5013167;28;1264;-58
2021/10/21 11:33:00;;;;;;;;;;;;;;;20.60;44.59;100019.38;5012813;28;899;-58
2021/10/21 11:35:27;;;;;;;;;;;;;;;20.75;44.04;100013.16;5012916;28;806;-58
2021/10/21 11:37:55;;;;;;;;;;;;;;;20.98;43.77;100012.53;4995014;28;1960;-58
2021/10/21 11:40:34;;;;;;;;;;;;;;;20.96;43.11;100006.59;5012715;28;810;-58
2021/10/21 11:43:08;;;;;;;;;;;;;;;21.10;43.20;100004.38;5012468;28;895;-58
2021/10/21 11:45:37;;;;;;;;;;;;;;;20.99;43.47;99994.44;5012858;28;834;-58
2021/10/21 11:48:10;;;;;;;;;;;;;;;20.94;43.12;100003.47;4994898;28;1207;-58
2021/10/21 11:50:54;;;;;;;;;;;;;;;21.03;42.57;99993.47;5012606;28;803;-58
2021/10/21 11:53:22;;;;;;;;;;;;;;;21.27;43.13;99996.41;5012341;28;1209;-58
2021/10/21 11:55:51;;;;;;;;;;;;;;;21.12;43.40;99982.22;5012483;28;912;-58
2021/10/21 11:58:19;;;;;;;;;;;;;;;21.30;43.12;99982.19;5012337;28;1894;-58
2021/10/21 12:00:53;;;;;;;;;;;;;;;21.49;42.06;99980.13;4994734;28;854;-58
2021/10/21 12:03:41;;;;;;;;;;;;;;;21.46;41.45;99977.47;4994833;28;735;-58
2021/10/21 12:06:09;;;;;;;;;;;;;;;21.40;41.52;99969.66;5012161;28;949;-58
2021/10/21 12:08:37;;;;;;;;;;;;;;;21.32;42.17;99967.66;5013007;28;849;-58
2021/10/21 12:11:05;;;;;;;;;;;;;;;21.27;42.62;99969.06;5012285;28;843;-58
2021/10/21 12:13:32;;;;;;;;;;;;;;;21.18;42.54;99961.44;4994750;28;1356;-58
2021/10/21 12:16:00;;;;;;;;;;;;;;;21.40;41.96;99958.41;5012347;28;994;-58
2021/10/21 12:18:27;;;;;;;;;;;;;;;21.53;39.53;99957.44;4894208;28;3405015;-59
2021/10/21 12:20:57;;;;;;;;;;;;;;;21.60;38.56;99951.50;5013108;28;943;-58
2021/10/21 12:23:30;;;;;;;;;;;;;;;21.80;38.28;99948.13;5012749;28;889;-58
2021/10/21 12:26:06;;;;;;;;;;;;;;;22.10;39.79;99949.03;5012762;28;950;-58
2021/10/21 12:28:49;;;;;;;;;;;;;;;22.08;40.69;99951.53;5012719;28;799;-58
2021/10/21 12:31:16;;;;;;;;;;;;;;;22.03;40.50;99940.94;5012068;28;866;-58
2021/10/21 12:33:50;;;;;;;;;;;;;;;22.22;41.20;99933.16;5012502;28;851;-58
2021/10/21 12:36:21;;;;;;;;;;;;;;;22.49;38.90;99935.03;5012753;28;815;-58
2021/10/21 12:38:53;;;;;;;;;;;;;;;22.30;37.59;99930.81;5012352;28;1942;-58
2021/10/21 12:41:23;;;;;;;;;;;;;;;22.21;37.65;99929.59;5012402;28;830;-58
2021/10/21 12:43:58;;;;;;;;;;;;;;;22.42;39.05;99924.91;5012512;28;826;-58
2021/10/21 12:46:26;;;;;;;;;;;;;;;22.46;37.91;99919.09;4995474;28;890;-58
2021/10/21 12:49:13;;;;;;;;;;;;;;;22.26;35.85;99924.59;5012805;28;826;-58
2021/10/21 12:51:41;;;;;;;;;;;;;;;22.02;34.48;99914.84;4994811;28;1953;-58
2021/10/21 12:54:09;;;;;;;;;;;;;;;21.82;37.03;99911.84;5012344;28;919;-58
2021/10/21 12:56:39;;;;;;;;;;;;;;;21.84;39.25;99920.59;5012235;28;915;-58
2021/10/21 12:59:06;;;;;;;;;;;;;;;21.73;36.19;99914.72;5012076;28;1892;-58
2021/10/21 13:01:51;;;;;;;;;;;;;;;21.67;36.75;99908.19;5012128;28;882;-58
2021/10/21 13:04:37;;;;;;;;;;;;;;;21.70;35.84;99902.38;5012371;28;814;-58
2021/10/21 13:07:04;;;;;;;;;;;;;;;21.60;35.13;99910.09;5012208;28;990;-58
2021/10/21 13:09:31;;;;;;;;;;;;;;;21.45;34.86;99897.22;4994631;28;843;-58
2021/10/21 13:11:58;;;;;;;;;;;;;;;21.49;35.22;99898.59;4994647;28;784;-58
2021/10/21 13:14:29;;;;;;;;;;;;;;;21.45;34.64;99897.97;5012240;28;800;-58
2021/10/21 13:16:56;;;;;;;;;;;;;;;21.33;35.41;99896.88;4994340;28;937;-58
2021/10/21 13:19:23;;;;;;;;;;;;;;;21.27;35.32;99900.81;5011611;28;1882;-58
2021/10/21 13:21:49;;;;;;;;;;;;;;;21.20;35.34;99891.47;5011913;28;1328;-58